sensor_id;sensor_type;location;lat;lon;timestamp;P1;durP1;ratioP1;P2;durP2;ratioP2
8007;SDS011;4049;49.468;11.200;2022-07-23T00:01:47;10.27;;;8.30;;
8007;SDS011;4049;49.468;11.200;2022-07-23T00:04:14;11.37;;;8.20;;
8007;SDS011;4049;49.468;11.200;2022-07-23T00:06:41;11.97;;;8.40;;
8007;SDS011;4049;49.468;11.200;2022-07-23T00:09:08;11.17;;;8.43;;
8007;SDS011;4049;49.468;11.200;2022-07-23T00:11:35;11.70;;;8.33;;
8007;SDS011;4049;49.468;11.200;2022-07-23T00:14:02;13.10;;;8.63;;
8007;SDS011;4049;49.468;11.200;2022-07-23T00:16:29;11.17;;;8.30;;
8007;SDS011;4049;49.468;11.200;2022-07-23T00:18:57;12.87;;;8.97;;
8007;SDS011;4049;49.468;11.200;2022-07-23T00:21:26;10.40;;;8.40;;
8007;SDS011;4049;49.468;11.200;2022-07-23T00:23:53;14.00;;;8.37;;
8007;SDS011;4049;49.468;11.200;2022-07-23T00:26:20;13.07;;;8.63;;
8007;SDS011;4049;49.468;11.200;2022-07-23T00:28:47;12.60;;;7.90;;
8007;SDS011;4049;49.468;11.200;2022-07-23T00:31:14;11.23;;;8.23;;
8007;SDS011;4049;49.468;11.200;2022-07-23T00:33:41;12.93;;;8.40;;
8007;SDS011;4049;49.468;11.200;2022-07-23T00:36:09;11.40;;;7.87;;
8007;SDS011;4049;49.468;11.200;2022-07-23T00:38:36;11.77;;;8.47;;
8007;SDS011;4049;49.468;11.200;2022-07-23T00:41:03;11.50;;;7.90;;
8007;SDS011;4049;49.468;11.200;2022-07-23T00:43:31;11.43;;;7.53;;
8007;SDS011;4049;49.468;11.200;2022-07-23T00:45:57;13.90;;;8.60;;
8007;SDS011;4049;49.468;11.200;2022-07-23T00:48:24;10.77;;;8.40;;
8007;SDS011;4049;49.468;11.200;2022-07-23T00:50:51;12.67;;;7.90;;
8007;SDS011;4049;49.468;11.200;2022-07-23T00:53:20;11.00;;;8.20;;
8007;SDS011;4049;49.468;11.200;2022-07-23T00:55:47;11.37;;;8.23;;
8007;SDS011;4049;49.468;11.200;2022-07-23T00:58:14;12.13;;;8.50;;
8007;SDS011;4049;49.468;11.200;2022-07-23T01:00:42;12.80;;;8.40;;
8007;SDS011;4049;49.468;11.200;2022-07-23T01:03:09;14.77;;;9.63;;
8007;SDS011;4049;49.468;11.200;2022-07-23T01:05:37;12.70;;;8.73;;
8007;SDS011;4049;49.468;11.200;2022-07-23T01:08:05;13.33;;;9.03;;
8007;SDS011;4049;49.468;11.200;2022-07-23T01:10:33;14.67;;;9.07;;
8007;SDS011;4049;49.468;11.200;2022-07-23T01:13:01;14.70;;;9.33;;
8007;SDS011;4049;49.468;11.200;2022-07-23T01:15:29;12.60;;;8.83;;
8007;SDS011;4049;49.468;11.200;2022-07-23T01:17:57;14.03;;;9.20;;
8007;SDS011;4049;49.468;11.200;2022-07-23T01:20:24;15.60;;;8.07;;
8007;SDS011;4049;49.468;11.200;2022-07-23T01:22:53;12.33;;;8.07;;
8007;SDS011;4049;49.468;11.200;2022-07-23T01:25:20;13.07;;;8.83;;
8007;SDS011;4049;49.468;11.200;2022-07-23T01:27:47;13.17;;;8.37;;
8007;SDS011;4049;49.468;11.200;2022-07-23T01:30:15;11.30;;;7.97;;
8007;SDS011;4049;49.468;11.200;2022-07-23T01:32:42;13.97;;;9.03;;
8007;SDS011;4049;49.468;11.200;2022-07-23T01:35:11;13.40;;;8.43;;
8007;SDS011;4049;49.468;11.200;2022-07-23T01:37:38;12.90;;;9.10;;
8007;SDS011;4049;49.468;11.200;2022-07-23T01:40:06;11.47;;;8.70;;
8007;SDS011;4049;49.468;11.200;2022-07-23T01:42:34;12.33;;;8.23;;
8007;SDS011;4049;49.468;11.200;2022-07-23T01:45:01;13.00;;;9.10;;
8007;SDS011;4049;49.468;11.200;2022-07-23T01:47:29;13.33;;;8.80;;
8007;SDS011;4049;49.468;11.200;2022-07-23T01:49:56;13.50;;;8.40;;
8007;SDS011;4049;49.468;11.200;2022-07-23T01:52:23;14.23;;;8.87;;
8007;SDS011;4049;49.468;11.200;2022-07-23T01:54:50;11.23;;;8.83;;
8007;SDS011;4049;49.468;11.200;2022-07-23T01:57:18;11.20;;;7.90;;
8007;SDS011;4049;49.468;11.200;2022-07-23T01:59:45;15.30;;;8.90;;
8007;SDS011;4049;49.468;11.200;2022-07-23T02:02:12;11.93;;;8.13;;
8007;SDS011;4049;49.468;11.200;2022-07-23T02:04:39;11.67;;;8.00;;
8007;SDS011;4049;49.468;11.200;2022-07-23T02:07:06;10.83;;;7.77;;
8007;SDS011;4049;49.468;11.200;2022-07-23T02:09:33;9.90;;;7.70;;
8007;SDS011;4049;49.468;11.200;2022-07-23T02:12:00;11.60;;;8.43;;
8007;SDS011;4049;49.468;11.200;2022-07-23T02:14:29;10.80;;;8.20;;
8007;SDS011;4049;49.468;11.200;2022-07-23T02:16:56;12.87;;;8.33;;
8007;SDS011;4049;49.468;11.200;2022-07-23T02:19:23;13.40;;;8.67;;
8007;SDS011;4049;49.468;11.200;2022-07-23T02:21:50;14.37;;;8.93;;
8007;SDS011;4049;49.468;11.200;2022-07-23T02:24:17;11.40;;;7.93;;
8007;SDS011;4049;49.468;11.200;2022-07-23T02:26:43;12.80;;;8.07;;
8007;SDS011;4049;49.468;11.200;2022-07-23T02:29:10;12.87;;;8.70;;
8007;SDS011;4049;49.468;11.200;2022-07-23T02:31:39;11.20;;;7.57;;
8007;SDS011;4049;49.468;11.200;2022-07-23T02:34:06;12.53;;;8.20;;
8007;SDS011;4049;49.468;11.200;2022-07-23T02:36:36;9.43;;;7.13;;
8007;SDS011;4049;49.468;11.200;2022-07-23T02:39:03;12.60;;;8.80;;
8007;SDS011;4049;49.468;11.200;2022-07-23T02:41:30;8.93;;;7.80;;
8007;SDS011;4049;49.468;11.200;2022-07-23T02:43:57;10.43;;;7.77;;
8007;SDS011;4049;49.468;11.200;2022-07-23T02:46:24;11.40;;;8.30;;
8007;SDS011;4049;49.468;11.200;2022-07-23T02:48:52;12.13;;;8.13;;
8007;SDS011;4049;49.468;11.200;2022-07-23T02:51:19;10.57;;;7.50;;
8007;SDS011;4049;49.468;11.200;2022-07-23T02:53:46;12.10;;;7.57;;
8007;SDS011;4049;49.468;11.200;2022-07-23T02:56:13;11.57;;;8.30;;
8007;SDS011;4049;49.468;11.200;2022-07-23T02:58:40;10.53;;;8.13;;
8007;SDS011;4049;49.468;11.200;2022-07-23T03:01:07;10.40;;;8.00;;
8007;SDS011;4049;49.468;11.200;2022-07-23T03:03:34;9.63;;;7.57;;
8007;SDS011;4049;49.468;11.200;2022-07-23T03:06:03;10.17;;;7.33;;
8007;SDS011;4049;49.468;11.200;2022-07-23T03:08:30;12.03;;;8.53;;
8007;SDS011;4049;49.468;11.200;2022-07-23T03:10:57;13.57;;;8.67;;
8007;SDS011;4049;49.468;11.200;2022-07-23T03:13:24;11.83;;;8.17;;
8007;SDS011;4049;49.468;11.200;2022-07-23T03:15:51;9.87;;;7.83;;
8007;SDS011;4049;49.468;11.200;2022-07-23T03:18:18;10.60;;;8.23;;
8007;SDS011;4049;49.468;11.200;2022-07-23T03:20:45;10.93;;;8.37;;
8007;SDS011;4049;49.468;11.200;2022-07-23T03:23:13;10.67;;;7.23;;
8007;SDS011;4049;49.468;11.200;2022-07-23T03:25:42;11.40;;;8.70;;
8007;SDS011;4049;49.468;11.200;2022-07-23T03:28:09;11.23;;;8.00;;
8007;SDS011;4049;49.468;11.200;2022-07-23T03:30:35;11.33;;;7.90;;
8007;SDS011;4049;49.468;11.200;2022-07-23T03:33:02;12.60;;;7.97;;
8007;SDS011;4049;49.468;11.200;2022-07-23T03:35:29;11.47;;;8.03;;
8007;SDS011;4049;49.468;11.200;2022-07-23T03:37:56;11.60;;;7.60;;
8007;SDS011;4049;49.468;11.200;2022-07-23T03:40:25;11.70;;;8.10;;
8007;SDS011;4049;49.468;11.200;2022-07-23T03:42:52;12.47;;;8.40;;
8007;SDS011;4049;49.468;11.200;2022-07-23T03:45:19;11.00;;;8.37;;
8007;SDS011;4049;49.468;11.200;2022-07-23T03:47:46;13.17;;;8.30;;
8007;SDS011;4049;49.468;11.200;2022-07-23T03:50:13;10.70;;;8.17;;
8007;SDS011;4049;49.468;11.200;2022-07-23T03:52:40;10.73;;;8.20;;
8007;SDS011;4049;49.468;11.200;2022-07-23T03:55:07;11.70;;;8.17;;
8007;SDS011;4049;49.468;11.200;2022-07-23T03:57:35;11.57;;;7.73;;
8007;SDS011;4049;49.468;11.200;2022-07-23T04:00:03;12.10;;;8.50;;
8007;SDS011;4049;49.468;11.200;2022-07-23T04:02:32;11.30;;;7.40;;
8007;SDS011;4049;49.468;11.200;2022-07-23T04:04:59;11.50;;;8.27;;
8007;SDS011;4049;49.468;11.200;2022-07-23T04:07:26;12.90;;;8.03;;
8007;SDS011;4049;49.468;11.200;2022-07-23T04:09:52;10.87;;;7.60;;
8007;SDS011;4049;49.468;11.200;2022-07-23T04:12:19;11.27;;;8.23;;
8007;SDS011;4049;49.468;11.200;2022-07-23T04:14:48;10.83;;;7.83;;
8007;SDS011;4049;49.468;11.200;2022-07-23T04:17:15;10.50;;;7.40;;
8007;SDS011;4049;49.468;11.200;2022-07-23T04:19:42;9.57;;;7.43;;
8007;SDS011;4049;49.468;11.200;2022-07-23T04:22:09;10.67;;;7.57;;
8007;SDS011;4049;49.468;11.200;2022-07-23T04:24:37;11.30;;;7.13;;
8007;SDS011;4049;49.468;11.200;2022-07-23T04:27:05;10.80;;;7.63;;
8007;SDS011;4049;49.468;11.200;2022-07-23T04:29:32;10.07;;;7.67;;
8007;SDS011;4049;49.468;11.200;2022-07-23T04:32:00;12.33;;;8.23;;
8007;SDS011;4049;49.468;11.200;2022-07-23T04:34:27;11.93;;;8.60;;
8007;SDS011;4049;49.468;11.200;2022-07-23T04:36:55;10.67;;;7.20;;
8007;SDS011;4049;49.468;11.200;2022-07-23T04:39:21;9.47;;;7.60;;
8007;SDS011;4049;49.468;11.200;2022-07-23T04:41:49;12.60;;;8.17;;
8007;SDS011;4049;49.468;11.200;2022-07-23T04:44:16;11.97;;;8.50;;
8007;SDS011;4049;49.468;11.200;2022-07-23T04:46:43;11.00;;;8.20;;
8007;SDS011;4049;49.468;11.200;2022-07-23T04:49:11;13.23;;;8.57;;
8007;SDS011;4049;49.468;11.200;2022-07-23T04:51:38;12.23;;;8.63;;
8007;SDS011;4049;49.468;11.200;2022-07-23T04:54:05;11.60;;;8.13;;
8007;SDS011;4049;49.468;11.200;2022-07-23T04:56:32;10.23;;;7.53;;
8007;SDS011;4049;49.468;11.200;2022-07-23T04:58:59;10.53;;;7.77;;
8007;SDS011;4049;49.468;11.200;2022-07-23T05:01:26;10.90;;;7.50;;
8007;SDS011;4049;49.468;11.200;2022-07-23T05:03:53;11.83;;;7.70;;
8007;SDS011;4049;49.468;11.200;2022-07-23T05:06:22;12.20;;;8.60;;
8007;SDS011;4049;49.468;11.200;2022-07-23T05:08:49;10.30;;;8.17;;
8007;SDS011;4049;49.468;11.200;2022-07-23T05:11:16;11.13;;;7.53;;
8007;SDS011;4049;49.468;11.200;2022-07-23T05:13:43;9.57;;;6.63;;
8007;SDS011;4049;49.468;11.200;2022-07-23T05:16:10;8.87;;;6.60;;
8007;SDS011;4049;49.468;11.200;2022-07-23T05:18:37;8.17;;;6.43;;
8007;SDS011;4049;49.468;11.200;2022-07-23T05:21:04;7.97;;;6.33;;
8007;SDS011;4049;49.468;11.200;2022-07-23T05:23:32;7.97;;;5.67;;
8007;SDS011;4049;49.468;11.200;2022-07-23T05:25:59;7.17;;;5.40;;
8007;SDS011;4049;49.468;11.200;2022-07-23T05:28:26;8.73;;;5.27;;
8007;SDS011;4049;49.468;11.200;2022-07-23T05:30:53;5.50;;;4.50;;
8007;SDS011;4049;49.468;11.200;2022-07-23T05:33:20;6.10;;;4.80;;
8007;SDS011;4049;49.468;11.200;2022-07-23T05:35:47;5.70;;;4.87;;
8007;SDS011;4049;49.468;11.200;2022-07-23T05:38:15;6.37;;;4.33;;
8007;SDS011;4049;49.468;11.200;2022-07-23T05:40:43;5.90;;;4.37;;
8007;SDS011;4049;49.468;11.200;2022-07-23T05:43:10;4.80;;;4.13;;
8007;SDS011;4049;49.468;11.200;2022-07-23T05:45:37;6.40;;;4.73;;
8007;SDS011;4049;49.468;11.200;2022-07-23T05:48:04;6.73;;;4.60;;
8007;SDS011;4049;49.468;11.200;2022-07-23T05:50:31;5.70;;;4.57;;
8007;SDS011;4049;49.468;11.200;2022-07-23T05:52:58;5.30;;;4.70;;
8007;SDS011;4049;49.468;11.200;2022-07-23T05:55:25;6.40;;;4.70;;
8007;SDS011;4049;49.468;11.200;2022-07-23T05:57:55;5.67;;;4.30;;
8007;SDS011;4049;49.468;11.200;2022-07-23T06:00:22;5.60;;;4.57;;
8007;SDS011;4049;49.468;11.200;2022-07-23T06:02:50;6.50;;;4.70;;
8007;SDS011;4049;49.468;11.200;2022-07-23T06:05:17;5.37;;;4.33;;
8007;SDS011;4049;49.468;11.200;2022-07-23T06:07:44;5.73;;;4.40;;
8007;SDS011;4049;49.468;11.200;2022-07-23T06:10:11;6.53;;;4.73;;
8007;SDS011;4049;49.468;11.200;2022-07-23T06:12:38;6.23;;;4.40;;
8007;SDS011;4049;49.468;11.200;2022-07-23T06:15:08;5.50;;;4.57;;
8007;SDS011;4049;49.468;11.200;2022-07-23T06:17:35;4.93;;;4.43;;
8007;SDS011;4049;49.468;11.200;2022-07-23T06:20:04;6.27;;;4.80;;
8007;SDS011;4049;49.468;11.200;2022-07-23T06:22:32;6.30;;;4.40;;
8007;SDS011;4049;49.468;11.200;2022-07-23T06:24:59;5.37;;;4.27;;
8007;SDS011;4049;49.468;11.200;2022-07-23T06:27:26;4.93;;;4.30;;
8007;SDS011;4049;49.468;11.200;2022-07-23T06:29:53;6.37;;;4.17;;
8007;SDS011;4049;49.468;11.200;2022-07-23T06:32:21;5.13;;;4.40;;
8007;SDS011;4049;49.468;11.200;2022-07-23T06:34:48;7.53;;;4.20;;
8007;SDS011;4049;49.468;11.200;2022-07-23T06:37:15;4.70;;;3.93;;
8007;SDS011;4049;49.468;11.200;2022-07-23T06:39:42;4.67;;;4.17;;
8007;SDS011;4049;49.468;11.200;2022-07-23T06:42:09;6.80;;;4.20;;
8007;SDS011;4049;49.468;11.200;2022-07-23T06:44:37;6.47;;;4.23;;
8007;SDS011;4049;49.468;11.200;2022-07-23T06:47:04;8.07;;;4.90;;
8007;SDS011;4049;49.468;11.200;2022-07-23T06:49:32;5.67;;;4.03;;
8007;SDS011;4049;49.468;11.200;2022-07-23T06:51:59;6.10;;;4.23;;
8007;SDS011;4049;49.468;11.200;2022-07-23T06:54:26;6.97;;;4.67;;
8007;SDS011;4049;49.468;11.200;2022-07-23T06:56:53;6.03;;;4.57;;
8007;SDS011;4049;49.468;11.200;2022-07-23T06:59:20;5.97;;;4.40;;
8007;SDS011;4049;49.468;11.200;2022-07-23T07:01:47;6.33;;;4.40;;
8007;SDS011;4049;49.468;11.200;2022-07-23T07:04:14;6.10;;;4.33;;
8007;SDS011;4049;49.468;11.200;2022-07-23T07:06:42;7.17;;;4.50;;
8007;SDS011;4049;49.468;11.200;2022-07-23T07:09:09;5.83;;;4.40;;
8007;SDS011;4049;49.468;11.200;2022-07-23T07:11:36;5.60;;;4.70;;
8007;SDS011;4049;49.468;11.200;2022-07-23T07:14:03;6.90;;;4.83;;
8007;SDS011;4049;49.468;11.200;2022-07-23T07:16:31;5.17;;;4.40;;
8007;SDS011;4049;49.468;11.200;2022-07-23T07:18:58;5.97;;;5.00;;
8007;SDS011;4049;49.468;11.200;2022-07-23T07:21:25;6.97;;;5.50;;
8007;SDS011;4049;49.468;11.200;2022-07-23T07:23:54;7.40;;;5.20;;
8007;SDS011;4049;49.468;11.200;2022-07-23T07:26:20;5.57;;;4.60;;
8007;SDS011;4049;49.468;11.200;2022-07-23T07:28:47;6.60;;;4.83;;
8007;SDS011;4049;49.468;11.200;2022-07-23T07:31:14;5.33;;;4.83;;
8007;SDS011;4049;49.468;11.200;2022-07-23T07:33:41;6.90;;;5.10;;
8007;SDS011;4049;49.468;11.200;2022-07-23T07:36:08;5.97;;;4.40;;
8007;SDS011;4049;49.468;11.200;2022-07-23T07:38:35;7.03;;;4.70;;
8007;SDS011;4049;49.468;11.200;2022-07-23T07:41:04;5.17;;;4.67;;
8007;SDS011;4049;49.468;11.200;2022-07-23T07:43:31;6.50;;;4.67;;
8007;SDS011;4049;49.468;11.200;2022-07-23T07:45:58;9.43;;;5.37;;
8007;SDS011;4049;49.468;11.200;2022-07-23T07:48:25;8.47;;;5.47;;
8007;SDS011;4049;49.468;11.200;2022-07-23T07:50:52;8.00;;;5.30;;
8007;SDS011;4049;49.468;11.200;2022-07-23T07:53:18;6.43;;;5.13;;
8007;SDS011;4049;49.468;11.200;2022-07-23T07:55:46;6.00;;;5.10;;
8007;SDS011;4049;49.468;11.200;2022-07-23T07:58:14;8.03;;;4.53;;
8007;SDS011;4049;49.468;11.200;2022-07-23T08:00:41;8.03;;;5.40;;
8007;SDS011;4049;49.468;11.200;2022-07-23T08:03:08;7.67;;;5.33;;
8007;SDS011;4049;49.468;11.200;2022-07-23T08:05:37;7.40;;;5.50;;
8007;SDS011;4049;49.468;11.200;2022-07-23T08:08:04;7.43;;;5.67;;
8007;SDS011;4049;49.468;11.200;2022-07-23T08:10:31;7.33;;;5.27;;
8007;SDS011;4049;49.468;11.200;2022-07-23T08:12:58;9.10;;;6.00;;
8007;SDS011;4049;49.468;11.200;2022-07-23T08:15:29;6.77;;;5.27;;
8007;SDS011;4049;49.468;11.200;2022-07-23T08:17:56;6.00;;;5.27;;
8007;SDS011;4049;49.468;11.200;2022-07-23T08:20:24;8.90;;;5.60;;
8007;SDS011;4049;49.468;11.200;2022-07-23T08:22:52;6.20;;;5.17;;
8007;SDS011;4049;49.468;11.200;2022-07-23T08:25:21;7.33;;;5.57;;
8007;SDS011;4049;49.468;11.200;2022-07-23T08:27:49;6.37;;;5.50;;
8007;SDS011;4049;49.468;11.200;2022-07-23T08:30:17;6.67;;;5.60;;
8007;SDS011;4049;49.468;11.200;2022-07-23T08:32:54;5.97;;;5.17;;
8007;SDS011;4049;49.468;11.200;2022-07-23T08:35:23;7.17;;;5.70;;
8007;SDS011;4049;49.468;11.200;2022-07-23T08:37:51;8.00;;;5.57;;
8007;SDS011;4049;49.468;11.200;2022-07-23T08:40:18;10.30;;;5.80;;
8007;SDS011;4049;49.468;11.200;2022-07-23T08:42:47;9.17;;;5.40;;
8007;SDS011;4049;49.468;11.200;2022-07-23T08:45:15;7.50;;;5.33;;
8007;SDS011;4049;49.468;11.200;2022-07-23T08:47:44;9.00;;;5.90;;
8007;SDS011;4049;49.468;11.200;2022-07-23T08:50:13;7.80;;;5.47;;
8007;SDS011;4049;49.468;11.200;2022-07-23T08:52:40;6.83;;;5.37;;
8007;SDS011;4049;49.468;11.200;2022-07-23T08:55:07;7.73;;;5.57;;
8007;SDS011;4049;49.468;11.200;2022-07-23T08:57:35;7.17;;;5.77;;
8007;SDS011;4049;49.468;11.200;2022-07-23T09:00:03;8.03;;;5.50;;
8007;SDS011;4049;49.468;11.200;2022-07-23T09:02:31;7.90;;;5.53;;
8007;SDS011;4049;49.468;11.200;2022-07-23T09:05:06;5.93;;;5.17;;
8007;SDS011;4049;49.468;11.200;2022-07-23T09:07:37;7.30;;;5.40;;
8007;SDS011;4049;49.468;11.200;2022-07-23T09:10:05;7.03;;;5.30;;
8007;SDS011;4049;49.468;11.200;2022-07-23T09:12:34;7.43;;;5.70;;
8007;SDS011;4049;49.468;11.200;2022-07-23T09:15:05;5.60;;;4.90;;
8007;SDS011;4049;49.468;11.200;2022-07-23T09:17:39;6.40;;;5.17;;
8007;SDS011;4049;49.468;11.200;2022-07-23T09:20:07;6.87;;;5.57;;
8007;SDS011;4049;49.468;11.200;2022-07-23T09:22:37;7.73;;;5.77;;
8007;SDS011;4049;49.468;11.200;2022-07-23T09:25:09;7.30;;;5.33;;
8007;SDS011;4049;49.468;11.200;2022-07-23T09:27:50;7.40;;;5.27;;
8007;SDS011;4049;49.468;11.200;2022-07-23T09:30:19;7.87;;;4.90;;
8007;SDS011;4049;49.468;11.200;2022-07-23T09:33:03;7.13;;;5.30;;
8007;SDS011;4049;49.468;11.200;2022-07-23T09:35:45;9.80;;;5.30;;
8007;SDS011;4049;49.468;11.200;2022-07-23T09:38:15;6.77;;;4.87;;
8007;SDS011;4049;49.468;11.200;2022-07-23T09:40:43;5.80;;;4.90;;
8007;SDS011;4049;49.468;11.200;2022-07-23T09:43:11;5.00;;;4.20;;
8007;SDS011;4049;49.468;11.200;2022-07-23T09:45:38;6.40;;;4.30;;
8007;SDS011;4049;49.468;11.200;2022-07-23T09:48:12;6.37;;;4.57;;
8007;SDS011;4049;49.468;11.200;2022-07-23T09:50:40;4.97;;;3.80;;
8007;SDS011;4049;49.468;11.200;2022-07-23T09:53:07;6.53;;;4.27;;
8007;SDS011;4049;49.468;11.200;2022-07-23T09:55:36;4.97;;;3.93;;
8007;SDS011;4049;49.468;11.200;2022-07-23T09:58:03;5.07;;;4.17;;
8007;SDS011;4049;49.468;11.200;2022-07-23T10:00:32;6.40;;;4.43;;
8007;SDS011;4049;49.468;11.200;2022-07-23T10:03:00;7.67;;;4.30;;
8007;SDS011;4049;49.468;11.200;2022-07-23T10:05:29;7.53;;;4.27;;
8007;SDS011;4049;49.468;11.200;2022-07-23T10:07:57;7.23;;;5.10;;
8007;SDS011;4049;49.468;11.200;2022-07-23T10:10:25;7.20;;;4.67;;
8007;SDS011;4049;49.468;11.200;2022-07-23T10:12:55;6.07;;;4.57;;
8007;SDS011;4049;49.468;11.200;2022-07-23T10:15:34;5.77;;;4.37;;
8007;SDS011;4049;49.468;11.200;2022-07-23T10:18:02;7.13;;;4.40;;
8007;SDS011;4049;49.468;11.200;2022-07-23T10:20:29;8.47;;;4.80;;
8007;SDS011;4049;49.468;11.200;2022-07-23T10:22:57;7.17;;;4.60;;
8007;SDS011;4049;49.468;11.200;2022-07-23T10:25:32;8.90;;;4.63;;
8007;SDS011;4049;49.468;11.200;2022-07-23T10:28:09;5.60;;;4.40;;
8007;SDS011;4049;49.468;11.200;2022-07-23T10:30:49;7.27;;;4.63;;
8007;SDS011;4049;49.468;11.200;2022-07-23T10:33:28;7.20;;;4.83;;
8007;SDS011;4049;49.468;11.200;2022-07-23T10:36:09;6.80;;;4.67;;
8007;SDS011;4049;49.468;11.200;2022-07-23T10:38:47;6.07;;;4.57;;
8007;SDS011;4049;49.468;11.200;2022-07-23T10:41:30;7.00;;;5.00;;
8007;SDS011;4049;49.468;11.200;2022-07-23T10:44:10;6.83;;;4.67;;
8007;SDS011;4049;49.468;11.200;2022-07-23T10:46:54;8.47;;;5.33;;
8007;SDS011;4049;49.468;11.200;2022-07-23T10:49:34;7.13;;;5.50;;
8007;SDS011;4049;49.468;11.200;2022-07-23T10:52:21;8.63;;;5.53;;
8007;SDS011;4049;49.468;11.200;2022-07-23T10:54:50;7.40;;;5.20;;
8007;SDS011;4049;49.468;11.200;2022-07-23T10:57:18;8.07;;;5.43;;
8007;SDS011;4049;49.468;11.200;2022-07-23T11:02:43;9.00;;;5.90;;
8007;SDS011;4049;49.468;11.200;2022-07-23T11:05:12;10.47;;;5.10;;
8007;SDS011;4049;49.468;11.200;2022-07-23T11:10:54;7.00;;;5.37;;
8007;SDS011;4049;49.468;11.200;2022-07-23T11:13:26;8.23;;;5.87;;
8007;SDS011;4049;49.468;11.200;2022-07-23T11:16:05;7.77;;;5.20;;
8007;SDS011;4049;49.468;11.200;2022-07-23T11:18:56;9.40;;;5.87;;
8007;SDS011;4049;49.468;11.200;2022-07-23T11:21:48;7.47;;;5.57;;
8007;SDS011;4049;49.468;11.200;2022-07-23T11:24:23;8.10;;;5.03;;
8007;SDS011;4049;49.468;11.200;2022-07-23T11:26:55;6.30;;;4.70;;
8007;SDS011;4049;49.468;11.200;2022-07-23T11:29:40;9.23;;;5.33;;
8007;SDS011;4049;49.468;11.200;2022-07-23T11:32:21;7.50;;;5.00;;
8007;SDS011;4049;49.468;11.200;2022-07-23T11:35:19;6.93;;;5.50;;
8007;SDS011;4049;49.468;11.200;2022-07-23T11:37:54;8.00;;;5.67;;
8007;SDS011;4049;49.468;11.200;2022-07-23T11:40:31;8.17;;;5.80;;
8007;SDS011;4049;49.468;11.200;2022-07-23T11:42:59;7.27;;;5.63;;
8007;SDS011;4049;49.468;11.200;2022-07-23T11:45:32;9.83;;;5.47;;
8007;SDS011;4049;49.468;11.200;2022-07-23T11:48:04;6.93;;;5.50;;
8007;SDS011;4049;49.468;11.200;2022-07-23T11:50:34;8.23;;;5.83;;
8007;SDS011;4049;49.468;11.200;2022-07-23T11:53:02;8.80;;;5.60;;
8007;SDS011;4049;49.468;11.200;2022-07-23T11:55:29;9.10;;;5.63;;
8007;SDS011;4049;49.468;11.200;2022-07-23T11:57:56;9.73;;;5.53;;
8007;SDS011;4049;49.468;11.200;2022-07-23T12:00:25;8.80;;;6.17;;
8007;SDS011;4049;49.468;11.200;2022-07-23T12:02:55;7.40;;;5.23;;
8007;SDS011;4049;49.468;11.200;2022-07-23T12:05:28;6.27;;;5.13;;
8007;SDS011;4049;49.468;11.200;2022-07-23T12:07:56;7.67;;;5.23;;
8007;SDS011;4049;49.468;11.200;2022-07-23T12:10:24;6.47;;;5.13;;
8007;SDS011;4049;49.468;11.200;2022-07-23T12:12:54;6.43;;;4.80;;
8007;SDS011;4049;49.468;11.200;2022-07-23T12:15:23;6.40;;;5.20;;
8007;SDS011;4049;49.468;11.200;2022-07-23T12:17:51;8.15;;;5.15;;
8007;SDS011;4049;49.468;11.200;2022-07-23T12:20:20;8.48;;;5.55;;
8007;SDS011;4049;49.468;11.200;2022-07-23T12:22:51;6.70;;;5.50;;
8007;SDS011;4049;49.468;11.200;2022-07-23T12:25:19;7.30;;;5.38;;
8007;SDS011;4049;49.468;11.200;2022-07-23T12:27:57;6.25;;;4.85;;
8007;SDS011;4049;49.468;11.200;2022-07-23T12:30:27;5.13;;;4.63;;
8007;SDS011;4049;49.468;11.200;2022-07-23T12:32:56;6.25;;;5.00;;
8007;SDS011;4049;49.468;11.200;2022-07-23T12:35:29;6.40;;;5.13;;
8007;SDS011;4049;49.468;11.200;2022-07-23T12:38:01;7.82;;;5.32;;
8007;SDS011;4049;49.468;11.200;2022-07-23T12:40:30;7.25;;;5.10;;
8007;SDS011;4049;49.468;11.200;2022-07-23T12:42:59;6.05;;;5.45;;
8007;SDS011;4049;49.468;11.200;2022-07-23T12:45:28;7.45;;;5.50;;
8007;SDS011;4049;49.468;11.200;2022-07-23T12:48:14;6.68;;;5.80;;
8007;SDS011;4049;49.468;11.200;2022-07-23T12:50:44;6.15;;;5.28;;
8007;SDS011;4049;49.468;11.200;2022-07-23T12:53:17;8.23;;;5.72;;
8007;SDS011;4049;49.468;11.200;2022-07-23T12:55:46;6.35;;;5.15;;
8007;SDS011;4049;49.468;11.200;2022-07-23T12:58:14;6.93;;;5.18;;
8007;SDS011;4049;49.468;11.200;2022-07-23T13:03:35;6.15;;;5.15;;
8007;SDS011;4049;49.468;11.200;2022-07-23T13:06:04;6.80;;;5.50;;
8007;SDS011;4049;49.468;11.200;2022-07-23T13:08:34;6.15;;;5.47;;
8007;SDS011;4049;49.468;11.200;2022-07-23T13:11:02;7.82;;;5.35;;
8007;SDS011;4049;49.468;11.200;2022-07-23T13:13:31;7.15;;;5.95;;
8007;SDS011;4049;49.468;11.200;2022-07-23T13:16:00;6.63;;;5.85;;
8007;SDS011;4049;49.468;11.200;2022-07-23T13:18:28;5.90;;;5.30;;
8007;SDS011;4049;49.468;11.200;2022-07-23T13:20:55;6.78;;;5.28;;
8007;SDS011;4049;49.468;11.200;2022-07-23T13:23:23;8.10;;;5.65;;
8007;SDS011;4049;49.468;11.200;2022-07-23T13:25:51;6.63;;;5.57;;
8007;SDS011;4049;49.468;11.200;2022-07-23T13:28:19;6.78;;;5.55;;
8007;SDS011;4049;49.468;11.200;2022-07-23T13:30:48;7.05;;;5.60;;
8007;SDS011;4049;49.468;11.200;2022-07-23T13:33:16;6.63;;;4.95;;
8007;SDS011;4049;49.468;11.200;2022-07-23T13:35:44;8.85;;;5.85;;
8007;SDS011;4049;49.468;11.200;2022-07-23T13:38:11;10.07;;;5.70;;
8007;SDS011;4049;49.468;11.200;2022-07-23T13:40:41;5.97;;;5.15;;
8007;SDS011;4049;49.468;11.200;2022-07-23T13:43:12;5.45;;;4.95;;
8007;SDS011;4049;49.468;11.200;2022-07-23T13:45:41;6.90;;;5.68;;
8007;SDS011;4049;49.468;11.200;2022-07-23T13:48:09;7.50;;;5.45;;
8007;SDS011;4049;49.468;11.200;2022-07-23T13:50:37;10.27;;;5.53;;
8007;SDS011;4049;49.468;11.200;2022-07-23T13:53:05;7.38;;;5.63;;
8007;SDS011;4049;49.468;11.200;2022-07-23T13:55:34;6.25;;;5.00;;
8007;SDS011;4049;49.468;11.200;2022-07-23T13:58:02;6.20;;;5.43;;
8007;SDS011;4049;49.468;11.200;2022-07-23T14:00:32;6.53;;;5.18;;
8007;SDS011;4049;49.468;11.200;2022-07-23T14:03:00;5.88;;;5.28;;
8007;SDS011;4049;49.468;11.200;2022-07-23T14:05:28;7.90;;;5.38;;
8007;SDS011;4049;49.468;11.200;2022-07-23T14:07:55;5.60;;;4.88;;
8007;SDS011;4049;49.468;11.200;2022-07-23T14:10:22;5.95;;;5.30;;
8007;SDS011;4049;49.468;11.200;2022-07-23T14:12:50;6.63;;;4.90;;
8007;SDS011;4049;49.468;11.200;2022-07-23T14:15:21;8.32;;;5.90;;
8007;SDS011;4049;49.468;11.200;2022-07-23T14:17:50;7.55;;;5.30;;
8007;SDS011;4049;49.468;11.200;2022-07-23T14:20:17;5.50;;;4.95;;
8007;SDS011;4049;49.468;11.200;2022-07-23T14:22:44;7.30;;;5.38;;
8007;SDS011;4049;49.468;11.200;2022-07-23T14:25:11;5.90;;;5.30;;
8007;SDS011;4049;49.468;11.200;2022-07-23T14:27:39;6.82;;;5.13;;
8007;SDS011;4049;49.468;11.200;2022-07-23T14:30:06;5.53;;;5.00;;
8007;SDS011;4049;49.468;11.200;2022-07-23T14:32:34;5.55;;;4.95;;
8007;SDS011;4049;49.468;11.200;2022-07-23T14:35:03;5.90;;;5.28;;
8007;SDS011;4049;49.468;11.200;2022-07-23T14:37:32;8.40;;;5.90;;
8007;SDS011;4049;49.468;11.200;2022-07-23T14:39:59;8.45;;;5.57;;
8007;SDS011;4049;49.468;11.200;2022-07-23T14:42:26;6.63;;;5.47;;
8007;SDS011;4049;49.468;11.200;2022-07-23T14:44:53;5.57;;;4.93;;
8007;SDS011;4049;49.468;11.200;2022-07-23T14:47:20;8.98;;;5.95;;
8007;SDS011;4049;49.468;11.200;2022-07-23T14:49:46;5.60;;;5.10;;
8007;SDS011;4049;49.468;11.200;2022-07-23T14:52:16;6.50;;;5.75;;
8007;SDS011;4049;49.468;11.200;2022-07-23T14:54:43;5.65;;;4.88;;
8007;SDS011;4049;49.468;11.200;2022-07-23T14:57:10;7.07;;;5.47;;
8007;SDS011;4049;49.468;11.200;2022-07-23T14:59:36;7.38;;;5.70;;
8007;SDS011;4049;49.468;11.200;2022-07-23T15:02:03;7.57;;;5.95;;
8007;SDS011;4049;49.468;11.200;2022-07-23T15:04:31;6.43;;;5.10;;
8007;SDS011;4049;49.468;11.200;2022-07-23T15:06:58;6.45;;;5.63;;
8007;SDS011;4049;49.468;11.200;2022-07-23T15:09:26;6.43;;;5.10;;
8007;SDS011;4049;49.468;11.200;2022-07-23T15:11:53;6.35;;;5.38;;
8007;SDS011;4049;49.468;11.200;2022-07-23T15:14:20;6.80;;;5.45;;
8007;SDS011;4049;49.468;11.200;2022-07-23T15:16:47;6.90;;;5.57;;